createdAt,value
2022-11-06T00:01:49.928Z,98117.78
2022-11-06T00:06:10.283Z,98109.44
2022-11-06T00:10:13.751Z,98109.84
2022-11-06T00:14:18.198Z,98109.72
2022-11-06T00:18:23.023Z,98119.56
2022-11-06T00:22:27.019Z,98123.66
2022-11-06T00:26:31.824Z,98130.34
2022-11-06T00:30:35.433Z,98121.47
2022-11-06T00:34:39.910Z,98116.66
2022-11-06T00:38:43.635Z,98124.72
2022-11-06T00:42:46.920Z,98131.41
2022-11-06T00:46:50.484Z,98130.88
2022-11-06T00:50:54.980Z,98128.41
2022-11-06T00:54:58.456Z,98124.88
2022-11-06T00:59:03.725Z,98125.84
2022-11-06T01:03:07.306Z,98130.38
2022-11-06T01:07:11.677Z,98129.69
2022-11-06T01:11:16.966Z,98128.50
2022-11-06T01:15:20.011Z,98122.19
2022-11-06T01:19:24.581Z,98119.47
2022-11-06T01:23:29.430Z,98123.28
2022-11-06T01:27:32.385Z,98123.25
2022-11-06T01:31:37.125Z,98119.97
2022-11-06T01:35:45.850Z,98122.69
2022-11-06T01:39:52.151Z,98121.59
2022-11-06T01:43:57.718Z,98125.66
2022-11-06T01:48:01.672Z,98124.53
2022-11-06T01:52:10.282Z,98120.50
2022-11-06T01:56:16.552Z,98126.88
2022-11-06T02:00:20.965Z,98124.38
2022-11-06T02:04:26.973Z,98120.91
2022-11-06T02:08:30.284Z,98125.09
2022-11-06T02:12:46.159Z,98124.81
2022-11-06T02:16:54.265Z,98125.44
2022-11-06T02:21:39.332Z,98124.31
2022-11-06T02:25:50.505Z,98120.34
2022-11-06T02:30:01.788Z,98117.03
2022-11-06T02:34:07.934Z,98123.31
2022-11-06T02:38:15.763Z,98120.72
2022-11-06T02:42:22.151Z,98125.06
2022-11-06T02:46:31.813Z,98115.66
2022-11-06T02:50:40.291Z,98115.19
2022-11-06T02:54:47.875Z,98117.50
2022-11-06T02:58:55.313Z,98111.38
2022-11-06T03:03:07.207Z,98112.13
2022-11-06T03:07:16.604Z,98116.41
2022-11-06T03:11:24.468Z,98106.00
2022-11-06T03:15:35.650Z,98107.31
2022-11-06T03:19:50.427Z,98096.63
2022-11-06T03:23:59.233Z,98099.69
2022-11-06T03:28:07.471Z,98095.97
2022-11-06T03:32:17.431Z,98095.75
2022-11-06T03:36:26.620Z,98093.91
2022-11-06T03:40:33.937Z,98097.91
2022-11-06T03:44:41.215Z,98106.03
2022-11-06T03:48:48.991Z,98110.41
2022-11-06T03:53:00.481Z,98104.97
2022-11-06T03:57:09.676Z,98113.19
2022-11-06T04:01:15.222Z,98118.13
2022-11-06T04:05:22.824Z,98122.13
2022-11-06T04:09:49.200Z,98114.94
2022-11-06T04:14:01.603Z,98105.03
2022-11-06T04:18:05.216Z,98111.50
2022-11-06T04:22:33.290Z,98113.34
2022-11-06T04:26:42.766Z,98111.41
2022-11-06T04:30:57.196Z,98108.78
2022-11-06T04:35:07.518Z,98110.13
2022-11-06T04:39:19.219Z,98108.34
2022-11-06T04:43:31.873Z,98103.91
2022-11-06T04:47:36.942Z,98109.97
2022-11-06T04:51:42.394Z,98108.63
2022-11-06T04:55:50.217Z,98103.88
2022-11-06T04:59:56.955Z,98091.50
2022-11-06T05:04:01.677Z,98094.50
2022-11-06T05:08:05.238Z,98085.66
2022-11-06T05:12:08.332Z,98077.06
2022-11-06T05:16:13.137Z,98080.88
2022-11-06T05:20:16.312Z,98085.19
2022-11-06T05:24:19.728Z,98080.75
2022-11-06T05:28:23.076Z,98082.06
2022-11-06T05:32:29.312Z,98084.19
2022-11-06T05:36:34.105Z,98090.78
2022-11-06T05:40:37.657Z,98081.06
2022-11-06T05:44:40.589Z,98094.13
2022-11-06T05:48:45.706Z,98090.88
2022-11-06T05:52:49.004Z,98093.47
2022-11-06T05:56:54.094Z,98088.53
2022-11-06T06:00:58.950Z,98079.69
2022-11-06T06:05:03.748Z,98085.81
2022-11-06T06:09:07.245Z,98093.22
2022-11-06T06:13:10.255Z,98099.19
2022-11-06T06:17:13.847Z,98103.41
2022-11-06T06:21:18.748Z,98106.94
2022-11-06T06:25:23.101Z,98104.25
2022-11-06T06:29:26.841Z,98104.81
2022-11-06T06:33:30.404Z,98102.78
2022-11-06T06:37:35.738Z,98103.03
2022-11-06T06:41:38.684Z,98109.34
2022-11-06T06:45:42.224Z,98101.75
2022-11-06T06:49:45.572Z,98111.09
2022-11-06T06:53:50.821Z,98096.97
2022-11-06T06:57:58.674Z,98100.75
2022-11-06T07:02:02.440Z,98107.19
2022-11-06T07:06:06.365Z,98105.66
2022-11-06T07:10:11.642Z,98118.38
2022-11-06T07:14:14.845Z,98111.34
2022-11-06T07:18:18.409Z,98101.38
2022-11-06T07:22:30.789Z,98107.53
2022-11-06T07:26:40.192Z,98101.94
2022-11-06T07:30:43.601Z,98097.56
2022-11-06T07:34:47.393Z,98100.28
2022-11-06T07:38:50.953Z,98094.41
2022-11-06T07:42:55.687Z,98082.75
2022-11-06T07:46:59.257Z,98083.69
2022-11-06T07:51:05.062Z,98086.25
2022-11-06T07:55:09.597Z,98079.97
2022-11-06T07:59:14.102Z,98082.66
2022-11-06T08:03:17.897Z,98078.00
2022-11-06T08:07:21.303Z,98076.91
2022-11-06T08:11:24.916Z,98076.91
2022-11-06T08:15:29.390Z,98078.00
2022-11-06T08:19:32.919Z,98059.97
2022-11-06T08:23:37.462Z,98066.66
2022-11-06T08:27:40.645Z,98078.81
2022-11-06T08:31:45.540Z,98076.56
2022-11-06T08:35:49.459Z,98072.09
2022-11-06T08:39:53.225Z,98064.88
2022-11-06T08:43:56.713Z,98062.13
2022-11-06T08:48:04.966Z,98061.03
2022-11-06T08:52:08.440Z,98048.84
2022-11-06T08:56:11.842Z,98059.09
2022-11-06T09:00:16.591Z,98048.91
2022-11-06T09:04:21.540Z,98052.81
2022-11-06T09:08:25.374Z,98051.28
2022-11-06T09:12:28.781Z,98042.53
2022-11-06T09:16:31.971Z,98028.59
2022-11-06T09:20:37.069Z,98019.38
2022-11-06T09:25:01.907Z,98019.63
2022-11-06T09:29:03.672Z,98010.69
2022-11-06T09:33:10.716Z,98008.06
2022-11-06T09:37:19.099Z,98028.53
2022-11-06T09:41:28.949Z,98018.72
2022-11-06T09:45:35.827Z,98001.06
2022-11-06T09:49:43.156Z,98001.41
2022-11-06T09:53:52.873Z,98001.09
2022-11-06T09:57:59.267Z,97999.09
2022-11-06T10:02:03.052Z,97999.44
2022-11-06T10:06:06.771Z,97989.47
2022-11-06T10:10:18.199Z,97983.75
2022-11-06T10:14:36.765Z,97992.09
2022-11-06T10:18:50.431Z,97992.22
2022-11-06T10:23:05.070Z,97986.19
2022-11-06T10:27:16.902Z,97974.91
2022-11-06T10:31:32.159Z,97965.09
2022-11-06T10:35:39.322Z,97942.00
2022-11-06T10:39:44.465Z,97932.31
2022-11-06T10:43:53.301Z,97934.38
2022-11-06T10:48:04.071Z,97928.91
2022-11-06T10:52:25.636Z,97908.22
2022-11-06T10:56:38.334Z,97901.56
2022-11-06T11:00:43.700Z,97899.06
2022-11-06T11:04:47.375Z,97888.25
2022-11-06T11:08:52.270Z,97881.84
2022-11-06T11:12:57.291Z,97861.31
2022-11-06T11:17:03.768Z,97835.59
2022-11-06T11:21:15.640Z,97829.34
2022-11-06T11:25:27.602Z,97820.59
2022-11-06T11:29:33.368Z,97820.25
2022-11-06T11:33:40.834Z,97799.84
2022-11-06T11:37:44.584Z,97784.81
2022-11-06T11:41:48.101Z,97768.84
2022-11-06T11:46:18.432Z,97757.47
2022-11-06T11:50:31.532Z,97759.19
2022-11-06T11:54:37.212Z,97739.56
2022-11-06T11:58:40.961Z,97736.25
2022-11-06T12:02:47.749Z,97727.47
2022-11-06T12:06:56.129Z,97717.81
2022-11-06T12:11:05.303Z,97721.44
2022-11-06T12:15:20.985Z,97723.69
2022-11-06T12:19:28.154Z,97719.91
2022-11-06T12:23:44.712Z,97710.03
2022-11-06T12:27:52.938Z,97697.72
2022-11-06T12:32:03.946Z,97683.50
2022-11-06T12:36:12.376Z,97678.59
2022-11-06T12:40:25.017Z,97669.25
2022-11-06T12:44:29.053Z,97659.06
2022-11-06T12:48:51.531Z,97646.88
2022-11-06T12:53:07.307Z,97642.84
2022-11-06T12:57:23.459Z,97634.75
2022-11-06T13:01:40.889Z,97634.38
2022-11-06T13:05:53.421Z,97623.81
2022-11-06T13:10:09.067Z,97610.41
2022-11-06T13:14:20.999Z,97586.72
2022-11-06T13:18:29.307Z,97579.34
2022-11-06T13:22:39.672Z,97584.41
2022-11-06T13:26:49.515Z,97584.41
2022-11-06T13:30:55.680Z,97578.31
2022-11-06T13:35:01.531Z,97561.16
2022-11-06T13:39:13.740Z,97550.53
2022-11-06T13:43:21.421Z,97541.25
2022-11-06T13:47:34.022Z,97536.84
2022-11-06T13:51:47.264Z,97525.56
2022-11-06T13:56:05.163Z,97501.72
2022-11-06T14:00:21.742Z,97503.31
2022-11-06T14:04:50.861Z,97501.66
2022-11-06T14:09:00.367Z,97501.97
2022-11-06T14:13:04.914Z,97496.06
2022-11-06T14:17:13.261Z,97488.69
2022-11-06T14:21:50.418Z,97484.00
2022-11-06T14:26:02.533Z,97468.78
2022-11-06T14:30:08.935Z,97480.22
2022-11-06T14:34:30.502Z,97477.13
2022-11-06T14:38:38.990Z,97479.25
2022-11-06T14:42:48.201Z,97471.09
2022-11-06T14:46:53.339Z,97464.13
2022-11-06T14:50:58.338Z,97460.78
2022-11-06T14:55:05.787Z,97458.41
2022-11-06T14:59:31.317Z,97451.34
2022-11-06T15:03:40.193Z,97454.91
2022-11-06T15:08:05.015Z,97443.94
2022-11-06T15:12:10.097Z,97445.25
2022-11-06T15:16:15.481Z,97438.69
2022-11-06T15:20:28.139Z,97443.31
2022-11-06T15:24:37.397Z,97432.28
2022-11-06T15:28:47.082Z,97447.19
2022-11-06T15:32:55.227Z,97443.81
2022-11-06T15:37:08.222Z,97450.81
2022-11-06T15:41:15.218Z,97449.63
2022-11-06T15:45:24.759Z,97447.09
2022-11-06T15:49:29.601Z,97451.41
2022-11-06T15:53:39.749Z,97452.97
2022-11-06T15:57:44.628Z,97446.47
2022-11-06T16:01:49.847Z,97441.50
2022-11-06T16:05:59.153Z,97450.94
2022-11-06T16:10:02.835Z,97448.19
2022-11-06T16:14:08.843Z,97447.81
2022-11-06T16:18:16.742Z,97440.34
2022-11-06T16:22:29.194Z,97447.66
2022-11-06T16:26:39.589Z,97452.19
2022-11-06T16:30:43.586Z,97453.47
2022-11-06T16:34:48.113Z,97450.38
2022-11-06T16:38:53.398Z,97460.88
2022-11-06T16:43:04.480Z,97465.41
2022-11-06T16:47:17.491Z,97449.44
2022-11-06T16:51:35.036Z,97453.94
2022-11-06T17:32:01.648Z,97429.06
2022-11-06T17:36:05.656Z,97432.78
2022-11-06T17:40:11.138Z,97432.13
2022-11-06T17:44:16.240Z,97435.03
2022-11-06T17:48:21.148Z,97422.38
2022-11-06T17:52:24.531Z,97428.50
2022-11-06T17:56:28.143Z,97425.25
2022-11-06T18:00:31.690Z,97425.56
2022-11-06T18:04:36.712Z,97423.13
2022-11-06T18:08:40.086Z,97430.69
2022-11-06T18:12:44.030Z,97446.44
2022-11-06T18:16:47.677Z,97445.91
2022-11-06T18:20:52.955Z,97455.63
2022-11-06T18:24:56.416Z,97455.41
2022-11-06T18:29:00.281Z,97453.13
2022-11-06T18:33:03.971Z,97456.00
2022-11-06T18:37:10.616Z,97455.03
2022-11-06T18:41:17.316Z,97443.84
2022-11-06T18:45:20.375Z,97455.03
2022-11-06T18:49:23.844Z,97459.44
2022-11-06T18:53:28.821Z,97464.63
2022-11-06T18:57:32.616Z,97456.00
2022-11-06T19:01:36.685Z,97469.50
2022-11-06T19:05:40.457Z,97459.91
2022-11-06T19:09:44.941Z,97460.75
2022-11-06T19:13:48.921Z,97455.03
2022-11-06T19:17:55.805Z,97467.34
2022-11-06T19:21:59.328Z,97462.47
2022-11-06T19:26:29.448Z,97469.41
2022-11-06T19:30:30.968Z,97467.13
2022-11-06T19:34:38.906Z,97468.09
2022-11-06T19:38:43.254Z,97473.56
2022-11-06T19:42:48.207Z,97467.41
2022-11-06T19:46:52.018Z,97466.09
2022-11-06T19:50:59.654Z,97470.78
2022-11-06T19:55:25.985Z,97478.16
2022-11-06T19:59:29.434Z,97484.75
2022-11-06T20:03:33.027Z,97484.41
2022-11-06T20:07:38.498Z,97484.00
2022-11-06T20:11:41.931Z,97492.38
2022-11-06T20:15:46.793Z,97493.78
2022-11-06T20:19:50.342Z,97501.34
2022-11-06T20:23:55.037Z,97503.81
2022-11-06T20:27:58.594Z,97506.69
2022-11-06T20:36:36.661Z,97524.22
2022-11-06T20:45:05.568Z,97523.84
2022-11-06T20:53:39.473Z,97541.06
2022-11-06T20:57:44.123Z,97540.41
2022-11-06T21:01:51.567Z,97535.38
2022-11-06T21:05:57.491Z,97537.28
2022-11-06T21:10:01.085Z,97540.81
2022-11-06T21:14:05.392Z,97548.59
2022-11-06T21:18:08.807Z,97553.63
2022-11-06T21:22:13.973Z,97550.22
2022-11-06T21:26:19.684Z,97546.84
2022-11-06T21:30:23.241Z,97545.50
2022-11-06T21:34:26.642Z,97558.84
2022-11-06T21:38:31.777Z,97562.38
2022-11-06T21:42:35.390Z,97566.91
2022-11-06T21:46:42.690Z,97560.19
2022-11-06T21:50:48.922Z,97574.94
2022-11-06T21:55:11.272Z,97573.28
2022-11-06T21:59:16.283Z,97565.63
2022-11-06T22:03:20.023Z,97563.03
2022-11-06T22:07:23.477Z,97576.84
2022-11-06T22:11:30.504Z,97590.50
2022-11-06T22:15:33.451Z,97594.00
2022-11-06T22:19:36.619Z,97594.97
2022-11-06T22:23:40.017Z,97592.91
2022-11-06T22:27:45.088Z,97606.25
2022-11-06T22:31:48.112Z,97608.03
2022-11-06T22:35:51.313Z,97610.75
2022-11-06T22:39:54.879Z,97609.00
2022-11-06T22:44:02.483Z,97632.06
2022-11-06T22:48:06.897Z,97640.63
2022-11-06T22:52:09.867Z,97633.66
2022-11-06T22:56:14.174Z,97643.91
2022-11-06T23:00:34.067Z,97641.88
2022-11-06T23:04:37.522Z,97643.22
2022-11-06T23:08:46.570Z,97628.63
2022-11-06T23:12:50.616Z,97648.53
2022-11-06T23:17:04.976Z,97648.34
2022-11-06T23:21:14.065Z,97657.75
2022-11-06T23:25:18.167Z,97640.53
2022-11-06T23:29:24.461Z,97649.09
2022-11-06T23:33:29.697Z,97651.66
2022-11-06T23:37:32.794Z,97649.16
2022-11-06T23:41:46.502Z,97640.94
2022-11-06T23:45:50.162Z,97643.13
2022-11-06T23:49:55.004Z,97654.69
2022-11-06T23:53:58.010Z,97658.63
2022-11-06T23:58:01.747Z,97660.00
